LFLE weather

Chambéry-Challes-les-Eaux Airport
Chambéry/Challes-les-Eaux, Rhône Alpes, France

Public forecast

Using degrees Celsius for public forecast. Weather courtesy of forecast.io.

Closest aviation weather report (METAR) to Chambéry-Challes-les-Eaux Airport

Closest report is Chambéry-Savoie Airport, 6.1 nm (11.3 km) NW. Retrieved 2019/10/21 06:30 UTC (26 minutes ago):

LFLB 210630Z AUTO VRB03KT 9999 4100 RA OVC032 15/14 Q1017 BECMG NSW

Closest aviation forecast (TAF) to Chambéry-Challes-les-Eaux Airport

Closest forecast is Chambéry-Savoie Airport, 6.1 nm (11.3 km) NW. Retrieved 2019/10/21 06:21 UTC (35 minutes ago):

TAF LFLB 210500Z 2106/2206 VRB03KT 9999 SCT030 BKN050 TEMPO 2118/2124 20015KT 4000 RA BKN020 OVC040